Goldfield, Nevada Weather observations

Data are for observation ending at time listed.
 Day   Time    Ave.   Ave.  Ave.  Vector   Max.   Stn.    Total    Solar   Ave.  
  of    of     Air    Rel.  Wind   Wind    Wind   Baro.  Precip.   Rad.    Soil  
Year   Day     Temp.  Hum.  Speed  Dir.    Gust   Pres.                    Temp. 
2015   (PST)    F      %     mph   deg.    mph     mb.     in.     W/m2     F   
------------------------------------------------------------------------------
 106   19:50   50.9    18   14.2   298     21.3   830.1    0.00       0    54.6
 106   20:00   50.7    19   14.1   297     18.6   830.3    0.00       0    54.5
 106   20:10   50.1    19   11.4   295     18.8   830.5    0.00       0    54.3
 106   20:20   48.9    20    6.9   293     11.0   830.8    0.00       0    54.2
 106   20:30   47.5    21    6.6   291     10.6   830.9    0.00       0    54.1
 106   20:40   47.2    21    5.9   300      9.3   831.1    0.00       0    54.0
 106   20:50   47.0    21    4.1   315      6.1   831.2    0.00       0    53.9
 106   21:00   46.6    22    4.5   303      7.9   831.3    0.00       0    53.8
 106   21:10   46.0    22    6.5   294     10.6   831.4    0.00       0    53.7
 106   21:20   46.1    22    8.3   298     11.8   831.4    0.00       0    53.5
 106   21:30   46.0    22    7.7   291     12.3   831.5    0.00       0    53.4
 106   21:40   45.1    23    7.5   291     10.4   831.5    0.00       0    53.3
 106   21:50   44.9    23    7.6   288     12.5   831.6    0.00       0    53.2
 106   22:00   45.5    23    5.4   309     10.7   831.7    0.00       0    53.0
 106   22:10   45.3    23    4.5   348      8.8   831.7    0.00       0    52.9
 106   22:20   45.1    23    1.5   325      3.7   831.8    0.00       0    52.7
 106   22:30   44.4    24    1.8    19      5.3   831.8    0.00       0    52.6
 106   22:40   44.8    24    3.4   340      6.8   831.9    0.00       0    52.5
 106   22:50   44.9    24    3.2   310      5.9   831.9    0.00       0    52.3
 106   23:00   44.4    25    6.5   288     11.2   831.9    0.00       0    52.2
 106   23:10   44.4    25    7.2   285     10.6   831.9    0.00       0    52.0
 106   23:20   44.4    25    7.7   284     11.0   831.9    0.00       0    51.9
 106   23:30   44.2    26    7.3   282     10.0   831.9    0.00       0    51.8
 106   23:40   44.7    28    7.9   279     11.4   831.7    0.00       0    51.7
 106   23:50   44.8    29    7.5   282     10.6   831.6    0.00       0    51.6
 107    0:00   44.8    30    8.1   282     11.4   831.6    0.00       0    51.4
 107    0:10   44.7    30    8.2   285     10.8   831.6    0.00       0    51.4
 107    0:20   43.7    31    7.3   290      9.7   831.6    0.00       0    51.2
 107    0:30   42.9    32    6.2   283      8.7   831.6    0.00       0    51.1
 107    0:40   42.5    33    5.3   282      6.6   831.5    0.00       0    51.0
 107    0:50   42.3    33    6.1   282      9.0   831.4    0.00       0    51.0
 107    1:00   42.3    32    4.8   335      8.0   831.4    0.00       0    50.9
 107    1:10   41.9    32    2.1   341      5.3   831.4    0.00       0    50.7
 107    1:20   40.6    32    1.6    71      2.9   831.4    0.00       0    50.6
 107    1:30   39.6    33    2.4   123      3.4   831.3    0.00       0    50.5
 107    1:40   38.8    34    1.9   148      2.9   831.4    0.00       0    50.4
 107    1:50   38.6    35    1.1   210      2.0   831.4    0.00       0    50.3
 107    2:00   37.5    35    1.6   135      2.8   831.4    0.00       0    50.2
 107    2:10   36.3    36    1.8   109      2.9   831.5    0.00       0    50.0
 107    2:20   35.8    36    3.4   121      4.5   831.4    0.00       0    49.9
 107    2:30   36.2    36    2.7   130      3.4   831.4    0.00       0    49.8
 107    2:40   35.5    35    3.1   103      4.4   831.4    0.00       0    49.7
 107    2:50   34.7    37    3.5   127      5.0   831.4    0.00       0    49.6
 107    3:00   35.7    36    2.3   123      3.0   831.4    0.00       0    49.4
 107    3:10   35.3    36    1.8   128      2.4   831.4    0.00       0    49.3
 107    3:20   35.1    36    1.3   125      2.6   831.3    0.00       0    49.2
 107    3:30   33.3    38    2.3   126      3.7   831.3    0.00       0    49.0
 107    3:40   33.9    38    2.9   130      4.9   831.3    0.00       0    48.9
 107    3:50   36.1    36    1.9   128      3.3   831.3    0.00       0    48.8
 107    4:00   33.8    38    1.4   134      1.9   831.4    0.00       0    48.6
 107    4:10   33.4    40    1.4   208      2.2   831.5    0.00       0    48.6
 107    4:20   34.4    39    1.1   174      2.0   831.4    0.00       0    48.4
 107    4:30   35.1    38    1.2   162      1.8   831.4    0.00       0    48.3
 107    4:40   35.3    36    1.1   130      2.0   831.5    0.00       0    48.1
 107    4:50   34.4    37    2.6   134      3.2   831.4    0.00       0    48.1
 107    5:00   35.1    36    2.0   146      3.0   831.5    0.00       0    47.9
 107    5:10   34.2    37    0.8   154      1.3   831.6    0.00       0    47.8
 107    5:20   33.7    38    1.2   154      1.7   831.6    0.00       7    47.7
 107    5:30   33.3    38    1.6   172      2.9   831.7    0.00      16    47.6
 107    5:40   35.2    36    1.6   175      2.4   831.8    0.00      58    47.5
 107    5:50   38.9    32    0.6   273      2.0   831.8    0.00      93    47.4
 107    6:00   41.9    29    1.1   294      2.6   831.8    0.00     130    47.3
 107    6:10   44.4    26    0.0   322      0.5   832.0    0.00     168    47.2
 107    6:20   44.8    26    1.1    72      2.6   832.1    0.00     193    47.1
 107    6:30   46.6    25    0.9    70      1.8   832.2    0.00     227    47.0
 107    6:40   48.9    23    1.4   335      3.5   832.2    0.00     273    47.1
 107    6:50   46.8    25    2.3   336      3.9   832.3    0.00     308    47.0
 107    7:00   47.0    24    2.8   306      5.0   832.3    0.00     345    47.0
 107    7:10   47.6    24    2.6   338      4.5   832.2    0.00     379    47.0
 107    7:20   47.4    24    3.1   331      5.4   832.2    0.00     418    47.0
 107    7:30   48.2    24    2.7   314      5.7   832.2    0.00     451    47.0
 107    7:40   49.4    23    2.0   336      5.2   832.1    0.00     489    47.1
 107    7:50   49.4    23    2.4   355      6.4   832.1    0.00     522    47.3
 107    8:00   50.2    23    3.0   348      6.1   832.1    0.00     556    47.4
 107    8:10   50.1    23    3.7   337      7.2   832.1    0.00     592    47.6
 107    8:20   50.7    23    4.1   333      7.9   832.0    0.00     626    47.8
 107    8:30   51.0    22    5.7   334      9.9   832.0    0.00     657    48.1
 107    8:40   51.6    22    6.3   345     11.1   832.0    0.00     686    48.4
 107    8:50   53.2    22    9.5   316     16.4   832.0    0.00     716    48.8
 107    9:00   54.6    21   10.8   303     15.6   832.0    0.00     744    49.1
 107    9:10   55.0    20   10.3   303     19.8   832.0    0.00     771    49.5
 107    9:20   54.3    21   11.9   320     20.5   832.0    0.00     800    49.8
 107    9:30   54.1    21   10.5   322     17.9   832.0    0.00     824    50.2
 107    9:40   55.7    20    8.2   298     15.3   832.0    0.00     842    50.5
 107    9:50   56.4    19    9.3   298     16.7   832.0    0.00     864    50.9
 107   10:00   57.2    19    8.4   296     16.2   831.9    0.00     883    51.4
 107   10:10   56.4    20   12.0   315     20.0   831.9    0.00     904    51.8
 107   10:20   56.1    21   10.7   318     18.6   831.8    0.00     921    52.2
 107   10:30   58.1    18    9.8   292     19.3   831.7    0.00     934    52.8
 107   10:40   58.3    18   11.4   306     19.1   831.7    0.00     946    53.2
 107   10:50   58.4    18   10.4   304     17.5   831.5    0.00     957    53.7
 107   11:00   59.2    18   10.2   284     17.8   831.4    0.00     967    54.2
 107   11:10   59.4    17   12.9   309     21.5   831.2    0.00     974    54.7
 107   11:20   60.3    17   13.4   304     24.3   831.1    0.00     979    55.2
 107   11:30   60.9    16   12.9   305     24.7   830.9    0.00     983    55.7
 107   11:40   61.1    16   11.2   305     19.4   830.8    0.00     985    56.0
 107   11:50   61.1    16   12.9   316     21.3   830.8    0.00     986    56.4
 107   12:00   60.3    16   12.3   316     23.2   830.6    0.00     985    56.8
 107   12:10   61.5    16    8.3   316     21.5   830.4    0.00     980    57.2
 107   12:20   62.2    15   14.9   305     24.6   830.3    0.00     978    57.6
 107   12:30   62.1    16   10.7   328     21.3   830.3    0.00     972    58.0
 107   12:40   62.4    15    9.8   305     20.8   830.5    0.00     961    58.4
 107   12:50   63.2    15   11.0   298     20.2   830.3    0.00     948    58.7
 107   13:00   63.1    15   11.3   317     22.3   830.0    0.00     934    59.0
 107   13:10   63.3    14   10.3   307     17.7   830.0    0.00     922    59.3
 107   13:20   64.4    14    8.0   301     15.9   829.8    0.00     908    59.4
 107   13:30   64.2    14   11.2   314     18.0   829.7    0.00     889    59.5
 107   13:40   64.5    13    9.4   304     19.3   829.5    0.00     872    59.5
 107   13:50   65.9    13    8.4   279     17.9   829.4    0.00     854    59.6
 107   14:00   65.5    13    9.4   314     18.6   829.3    0.00     824    59.5
 107   14:10   65.0    13    9.8   302     21.5   829.1    0.00     802    59.5
 107   14:20   66.5    12   12.4   300     19.8   829.1    0.00     777    59.5
 107   14:30   65.8    12   11.9   308     21.2   828.7    0.00     751    59.5
 107   14:40   65.6    12    9.4   305     16.4   828.8    0.00     725    59.5
 107   14:50   67.2    11   12.1   290     23.6   828.6    0.00     697    59.5
 107   15:00   66.2    12   12.6   305     40.6   828.5    0.00     669    59.5
 107   15:10   66.4    12    9.4   300     21.9   828.5    0.00     635    59.6
 107   15:20   66.6    12   12.1   314     22.0   828.4    0.00     601    59.7
 107   15:30   67.4    11   10.4   288     18.3   828.4    0.00     574    59.8
 107   15:40   68.1    11   12.6   299     20.8   828.4    0.00     537    59.9
 107   15:50   67.8    11   12.9   294     22.0   828.3    0.00     504    60.0
 107   16:00   67.8    11   10.9   297     20.4   828.2    0.00     470    60.0
 107   16:10   67.4    11   12.9   298     21.7   828.1    0.00     434    60.1
 107   16:20   67.3    11   11.7   291     21.3   828.1    0.00     400    60.0
 107   16:30   66.9    11   12.6   305     23.6   828.0    0.00     364    60.1
 107   16:40   67.4    11   13.8   299     23.4   828.1    0.00     330    60.1
 107   16:50   66.9    11   11.0   300     18.6   828.1    0.00     296    60.1
 107   17:00   67.4    11   10.4   287     17.6   828.1    0.00     264    60.0
 107   17:10   67.1    11   10.6   288     15.9   828.1    0.00     230    60.1
 107   17:20   67.0    11   10.0   284     14.8   828.0    0.00     199    60.0
 107   17:30   66.3    11   12.7   292     19.4   828.0    0.00     167    60.0
 107   17:40   65.8    11   10.4   289     16.1   828.0    0.00     136    60.0
 107   17:50   64.6    12   11.2   293     17.6   827.9    0.00      98    59.9
 107   18:00   63.1    12    8.1   294     14.0   827.9    0.00      58    59.9
 107   18:10   62.1    12    7.8   284     13.1   828.0    0.00      18    59.9
 107   18:20   61.1    13    6.7   293      9.7   828.0    0.00      14    59.8
 107   18:30   59.9    13    5.6   293      7.6   828.1    0.00       8    59.7
 107   18:40   58.6    14    6.0   289      9.8   828.1    0.00       2    59.6
 107   18:50   58.3    14    5.9   284     11.2   828.1    0.00       0    59.5
 107   19:00   57.6    15    4.9   276      8.8   828.2    0.00       0    59.4
 107   19:10   57.9    15    5.1   274      8.8   828.4    0.00       0    59.3
 107   19:20   57.6    15    5.8   279      8.9   828.5    0.00       0    59.2
 107   19:30   56.7    15    6.0   285      8.8   828.6    0.00       0    59.0
 107   19:40   55.9    16    6.0   282      8.6   828.7    0.00       0    58.9

Return to Goldfield, Nevada graphs page.


Western Regional Climate Center,wrcc@dri.edu